• Join FlightAware (Why Join?)
  • Login
  • US Flag 
09:38AM EST


 

Airport Tracker/Info


-or-


 

Live Flight TrackerFlight Track Log ✈ LAK145 ✈ 24-Mar-2014 ✈ KSUN - KSAN

Flight Track Log - Related Links

Times and Time Zones

All times are in EDT time to prevent confusion due to time zone crossing. See the LAK145 flight status page for this flight to view local times or setup timezone preferences in your user account.

Time Position Orientation Groundspeed Altitude Reporting Facility
EDT Latitude Longitude Course Direction KTS MPH feet Rate Location/Type
07:10PM 43.2992 -114.2378 172° South 342 394 12,400  Level Salt Lake Center
07:11PM 43.2122 -114.2225 173° South 331 381 14,800 2,340 Climbing Salt Lake Center
07:12PM 42.8881 -114.1591 173° South  Level FlightAware Approximate
07:12PM 43.1125 -114.2108 175° South 337 388 17,200  Level Salt Lake Center
07:13PM 42.7852 -114.1447 175° South  Level FlightAware Approximate
07:13PM 43.0108 -114.2103 180° South 348 400 19,400  Level Salt Lake Center
07:14PM 42.6823 -114.1301 172° South  Level FlightAware Approximate
07:14PM 42.9261 -114.1894 170° South 355 409 21,300  Level Salt Lake Center
07:15PM 42.5798 -114.1115 172° South  Level FlightAware Approximate
07:15PM 42.8047 -114.1669 172° South 365 420 23,700  Level Salt Lake Center
07:16PM 42.6997 -114.1531 174° South 374 430 25,700 1,980 Climbing Salt Lake Center
07:17PM 42.5936 -114.1322 172° South 383 441 27,800 2,040 Climbing Salt Lake Center
07:18PM 42.4900 -114.1164 174° South 381 438 29,900 1,740 Climbing Salt Lake Center
07:19PM 42.3858 -114.0958 172° South 380 437 31,400 1,440 Climbing Salt Lake Center
07:20PM 42.2814 -114.0781 173° South 380 437 32,900 1,440 Climbing Salt Lake Center
07:21PM 42.1761 -114.0594 173° South 380 437 34,400 1,440 Climbing Salt Lake Center
07:22PM 42.0511 -114.0386 173° South 380 437 35,900 1,260 Climbing Salt Lake Center
07:24PM 41.9464 -114.0228 174° South 380 437 37,100 1,200 Climbing Salt Lake Center
07:25PM 41.8428 -114.0039 172° South 380 437 38,400 1,080 Climbing Salt Lake Center
07:26PM 41.7400 -113.9872 173° South 375 432 39,400 900 Climbing Salt Lake Center
07:27PM 41.6367 -113.9700 173° South 375 432 40,300 660 Climbing Salt Lake Center
07:28PM 41.5344 -113.9531 173° South 374 430 40,800 300 Climbing Salt Lake Center
07:29PM 41.4289 -113.9361 173° South 377 434 41,000 60 Climbing Salt Lake Center
07:30PM 41.2972 -113.9139 173° South 392 451 41,000  Level Salt Lake Center
07:31PM 41.1847 -113.8961 173° South 401 461 41,000  Level Salt Lake Center
07:32PM 41.0700 -113.8764 173° South 408 470 41,000  Level Salt Lake Center
07:33PM 40.9544 -113.8569 173° South 414 476 41,000  Level Salt Lake Center
07:34PM 40.8392 -113.8408 174° South 415 478 41,000  Level Salt Lake Center
07:35PM 40.7219 -113.8197 172° South 420 483 41,000  Level Salt Lake Center
07:36PM 40.6069 -113.8025 174° South 420 483 41,000  Level Salt Lake Center
07:37PM 40.4683 -113.7794 173° South 420 483 41,000  Level Salt Lake Center
07:38PM 40.3519 -113.7603 173° South 420 483 41,000  Level Salt Lake Center
07:39PM 40.2356 -113.7439 174° South 421 484 41,000  Level Salt Lake Center
07:40PM 40.1197 -113.7242 173° South 421 484 41,000  Level Salt Lake Center
07:41PM 40.0031 -113.7067 173° South 421 484 41,000  Level Salt Lake Center
07:42PM 39.8869 -113.6872 173° South 421 484 41,000  Level Salt Lake Center
07:43PM 39.7514 -113.6664 173° South 413 475 41,000  Level Salt Lake Center
07:44PM 39.6544 -113.6528 174° South 409 471 41,000  Level Salt Lake Center
07:45PM 39.5442 -113.6325 172° South 404 465 41,000  Level Salt Lake Center
07:46PM 39.4092 -113.6133 174° South 404 465 41,000  Level Salt Lake Center
07:47PM 39.2972 -113.5956 173° South 405 466 41,000  Level Salt Lake Center
07:48PM 39.1828 -113.5767 173° South 410 472 41,000  Level Salt Lake Center
07:49PM 39.0689 -113.5622 174° South 412 474 41,000  Level Salt Lake Center
07:50PM 38.9564 -113.5431 172° South 411 473 41,000  Level Salt Lake Center
07:51PM 38.8456 -113.5275 174° South 406 467 41,000  Level Salt Lake Center
07:52PM 38.7342 -113.5100 173° South 405 466 41,000  Level Salt Lake Center
07:53PM 38.5989 -113.4900 173° South 405 466 41,000  Level Salt Lake Center
07:54PM 38.4867 -113.4744 174° South 405 466 41,000  Level Salt Lake Center
07:55PM 38.3761 -113.4561 173° South 405 466 41,000  Level Salt Lake Center
07:56PM 38.2644 -113.4414 174° South 404 465 41,000  Level Salt Lake Center
07:57PM 38.1533 -113.4233 173° South 404 465 41,000  Level Salt Lake Center
07:58PM 38.0419 -113.4067 173° South 404 465 41,000  Level Salt Lake Center
07:59PM 37.9086 -113.3928 175° South 404 465 41,000  Level Salt Lake Center
08:01PM 37.8139 -113.4569 208° Southwest 395 455 41,000  Level Salt Lake Center
08:02PM 37.7231 -113.5264 211° Southwest 389 448 41,000  Level Salt Lake Center
08:03PM 37.6342 -113.5981 213° Southwest 387 445 41,000  Level Salt Lake Center
08:04PM 37.5442 -113.6678 212° Southwest 383 441 41,000 -240 Level Salt Lake Center
08:05PM 37.4542 -113.7336 210° Southwest 379 436 40,600 -480 Descending Salt Lake Center
08:06PM 37.3569 -113.7942 206° Southwest 386 444 40,100 -300 Descending Salt Lake Center
08:07PM 37.2400 -113.8703 207° Southwest 393 452 40,000 -60 Descending Salt Lake Center
08:08PM 37.1428 -113.9319 207° Southwest 393 452 40,000  Level Salt Lake Center
08:09PM 37.0464 -113.9914 206° Southwest 391 450 40,000  Level Salt Lake Center
08:10PM 36.9503 -114.0533 207° Southwest 391 450 40,000  Level Salt Lake Center
08:11PM 36.8528 -114.1128 206° Southwest 390 449 40,000  Level Salt Lake Center
08:12PM 36.7161 -114.1975 206° Southwest 391 450 40,000  Level Los Angeles Center
08:13PM 36.6053 -114.2669 207° Southwest 391 450 40,000  Level Los Angeles Center
08:14PM 36.5061 -114.3278 206° Southwest 393 452 40,000  Level Los Angeles Center
08:15PM 36.4092 -114.3903 207° Southwest 393 452 40,000  Level Los Angeles Center
08:16PM 36.3108 -114.4494 206° Southwest 393 452 40,000  Level Los Angeles Center
08:17PM 36.2139 -114.5114 207° Southwest 392 451 40,000  Level Los Angeles Center
08:18PM 36.0981 -114.5811 206° Southwest 388 447 40,000  Level Los Angeles Center
08:19PM 36.0014 -114.6422 207° Southwest 388 447 40,000  Level Los Angeles Center
08:21PM 35.9061 -114.7003 206° Southwest 385 443 40,000  Level Los Angeles Center
08:22PM 35.8092 -114.7547 204° Southwest 383 441 40,000  Level Los Angeles Center
08:23PM 35.7128 -114.8072 204° Southwest 380 437 40,000  Level Los Angeles Center
08:24PM 35.6161 -114.8594 204° Southwest 380 437 40,000  Level Los Angeles Center
08:25PM 35.5028 -114.9200 204° Southwest 372 428 40,000  Level Los Angeles Center
08:26PM 35.4053 -114.9697 203° Southwest 373 429 40,000 -600 Level Los Angeles Center
08:27PM 35.3081 -115.0225 204° Southwest 378 435 38,800 -1,320 Descending Los Angeles Center
08:28PM 35.2028 -115.0739 202° Southwest 399 459 37,300 -1,440 Descending Los Angeles Center
08:29PM 35.1019 -115.1319 205° Southwest 400 460 35,900 -1,440 Descending Los Angeles Center
08:30PM 34.9992 -115.1833 202° Southwest 400 460 34,400 -1,440 Descending Los Angeles Center
08:31PM 34.8936 -115.2394 204° Southwest 407 468 32,900 -1,440 Descending Los Angeles Center
08:32PM 34.7650 -115.3044 203° Southwest 414 476 31,400 -1,320 Descending Los Angeles Center
08:33PM 34.6583 -115.3589 203° Southwest 414 476 30,200 -1,260 Descending Los Angeles Center
08:34PM 34.5533 -115.4158 204° Southwest 414 476 28,900 -1,260 Descending Los Angeles Center
08:35PM 34.4469 -115.4683 202° Southwest 413 475 27,700 -960 Descending Los Angeles Center
08:36PM 34.3422 -115.5250 204° Southwest 413 475 27,000 -420 Descending Los Angeles Center
08:37PM 34.2372 -115.5758 202° Southwest 409 471 26,900  Descending Los Angeles Center
08:38PM 34.1100 -115.6414 203° Southwest 410 472 27,000  Climbing Los Angeles Center
08:39PM 34.0042 -115.6956 203° Southwest 411 473 26,900  Descending Los Angeles Center
08:40PM 33.8939 -115.7500 202° Southwest 421 484 27,000  Climbing Los Angeles Center
08:41PM 33.7881 -115.8069 204° Southwest 419 482 26,900 -540 Descending Los Angeles Center
08:42PM 33.6836 -115.8578 202° Southwest 407 468 25,900 -1,260 Descending Los Angeles Center
08:43PM 33.5786 -115.9122 203° Southwest 411 473 24,400 -1,020 Descending Los Angeles Center
08:44PM 33.4772 -116.0100 219° Southwest 401 461 23,900 -300 Descending Los Angeles Center
08:45PM 33.4119 -116.1197 235° Southwest 402 463 23,800 -1,140 Descending Los Angeles Center
08:46PM 33.3250 -116.1892 214° Southwest 379 436 21,600 -2,340 Descending Los Angeles Center
08:47PM 33.2397 -116.2586 214° Southwest 373 429 19,000 -2,460 Descending Los Angeles Center
08:48PM 33.1542 -116.3267 214° Southwest 373 429 16,600 -2,640 Descending Los Angeles Center
08:50PM 33.0578 -116.4014 213° Southwest 354 407 13,600 -2,460 Descending Los Angeles Center
08:51PM 32.9881 -116.4581 214° Southwest 346 398 11,500 -2,040 Descending Los Angeles Center
08:52PM 32.9311 -116.5467 233° Southwest 318 366 9,400 -1,260 Descending Los Angeles Center
08:53PM 32.8839 -116.6219 233° Southwest 294 338 8,900 -1,080 Descending Los Angeles Center
08:54PM 32.8219 -116.7117 231° Southwest 291 335 7,200 -1,860 Descending Los Angeles Center
08:55PM 32.7719 -116.7858 231° Southwest 291 335 5,100 -1,140 Descending Los Angeles Center
08:56PM 32.7278 -116.8519 232° Southwest 268 308 4,900 -600 Descending Los Angeles Center
08:57PM 32.6833 -116.9167 231° Southwest 238 274 4,000 -660 Descending Southern California TRACON
08:58PM 32.6833 -116.9667 270° West 199 229 3,700 -720 Descending Southern California TRACON
08:59PM 32.7000 -117.0333 287° West 184 212 2,600 -900 Descending Southern California TRACON
09:00PM 32.7000 -117.0833 270° West 143 165 2,000 -900 Descending Southern California TRACON
09:01PM 32.7167 -117.1167 301° West 122 140 900 -720 Descending Southern California TRACON
09:02PM 32.7167 -117.1500 270° West 109 125 600 -300 Descending Southern California TRACON
09:03PM 32.7342 -117.1914 297° West 114 131 300 -240 Descending Los Angeles Center
09:05PM 32.7333 -117.1833 North  Level FlightAware Approximate